createdAt,value
2018-08-20T00:01:40.122Z,93.90
2018-08-20T00:04:10.870Z,94.00
2018-08-20T00:06:54.013Z,94.10
2018-08-20T00:09:46.846Z,94.20
2018-08-20T00:12:18.246Z,94.40
2018-08-20T00:14:47.696Z,94.30
2018-08-20T00:17:16.901Z,94.20
2018-08-20T00:19:47.408Z,94.40
2018-08-20T00:22:17.192Z,94.60
2018-08-20T00:24:55.981Z,94.70
2018-08-20T00:27:25.034Z,94.70
2018-08-20T00:29:54.178Z,94.70
2018-08-20T00:32:25.080Z,94.70
2018-08-20T00:34:53.852Z,94.60
2018-08-20T00:37:22.740Z,94.50
2018-08-20T00:39:51.605Z,94.40
2018-08-20T00:42:20.498Z,94.30
2018-08-20T00:44:49.819Z,94.30
2018-08-20T00:47:19.643Z,94.30
2018-08-20T00:49:48.932Z,94.30
2018-08-20T00:52:17.946Z,94.30
2018-08-20T00:54:47.947Z,94.40
2018-08-20T00:57:17.575Z,94.40
2018-08-20T00:59:46.993Z,94.80
2018-08-20T01:02:19.811Z,94.40
2018-08-20T01:04:48.782Z,94.40
2018-08-20T01:07:17.809Z,94.50
2018-08-20T01:09:46.784Z,94.60
2018-08-20T01:12:15.837Z,94.50
2018-08-20T01:14:44.840Z,94.60
2018-08-20T01:17:13.853Z,94.60
2018-08-20T01:19:43.386Z,94.70
2018-08-20T01:22:12.791Z,94.70
2018-08-20T01:24:43.145Z,94.80
2018-08-20T01:27:17.141Z,94.90
2018-08-20T01:29:46.115Z,94.90
2018-08-20T01:32:15.383Z,94.90
2018-08-20T01:34:44.206Z,95.00
2018-08-20T01:37:14.274Z,94.90
2018-08-20T01:39:43.172Z,95.10
2018-08-20T01:42:12.936Z,95.20
2018-08-20T01:44:41.790Z,95.30
2018-08-20T01:47:10.757Z,95.40
2018-08-20T01:49:39.708Z,95.60
2018-08-20T01:52:09.213Z,95.60
2018-08-20T01:54:38.345Z,95.60
2018-08-20T01:57:08.294Z,95.70
2018-08-20T01:59:38.126Z,95.70
2018-08-20T02:02:08.782Z,95.70
2018-08-20T02:04:37.767Z,95.80
2018-08-20T02:07:06.669Z,95.80
2018-08-20T02:09:35.576Z,95.90
2018-08-20T02:12:04.580Z,95.90
2018-08-20T02:14:33.998Z,95.90
2018-08-20T02:17:03.278Z,96.00
2018-08-20T02:19:32.272Z,96.00
2018-08-20T02:22:01.118Z,96.00
2018-08-20T02:24:30.156Z,96.00
2018-08-20T02:26:59.153Z,96.10
2018-08-20T02:29:28.833Z,96.10
2018-08-20T02:31:58.570Z,96.10
2018-08-20T02:34:27.519Z,96.40
2018-08-20T02:36:56.572Z,96.00
2018-08-20T02:39:26.207Z,96.00
2018-08-20T02:41:55.194Z,96.10
2018-08-20T02:44:24.191Z,96.10
2018-08-20T02:46:54.152Z,96.10
2018-08-20T02:49:23.087Z,96.20
2018-08-20T02:51:52.116Z,96.20
2018-08-20T02:54:21.032Z,96.20
2018-08-20T02:56:49.896Z,96.30
2018-08-20T02:59:20.243Z,96.30
2018-08-20T03:01:49.734Z,96.30
2018-08-20T03:04:18.778Z,96.40
2018-08-20T03:06:49.015Z,96.40
2018-08-20T03:09:17.911Z,96.50
2018-08-20T03:11:46.891Z,96.70
2018-08-20T03:14:15.818Z,96.60
2018-08-20T03:16:44.602Z,96.60
2018-08-20T03:19:14.199Z,96.70
2018-08-20T03:21:43.069Z,96.70
2018-08-20T03:24:12.116Z,96.70
2018-08-20T03:26:41.165Z,96.80
2018-08-20T03:29:10.338Z,96.80
2018-08-20T03:31:40.065Z,96.80
2018-08-20T03:34:09.684Z,96.90
2018-08-20T03:36:38.633Z,96.90
2018-08-20T03:39:08.514Z,96.90
2018-08-20T03:41:37.409Z,97.00
2018-08-20T03:44:06.490Z,97.10
2018-08-20T03:46:35.952Z,97.20
2018-08-20T03:49:05.205Z,97.20
2018-08-20T03:51:34.776Z,97.20
2018-08-20T03:54:03.903Z,97.20
2018-08-20T03:56:33.471Z,97.20
2018-08-20T03:59:02.504Z,97.10
2018-08-20T04:01:32.166Z,97.20
2018-08-20T04:04:01.160Z,97.20
2018-08-20T04:06:30.662Z,97.20
2018-08-20T04:09:00.494Z,97.20
2018-08-20T04:11:29.503Z,97.20
2018-08-20T04:13:58.524Z,97.30
2018-08-20T04:16:28.149Z,97.30
2018-08-20T04:19:02.004Z,97.30
2018-08-20T04:21:33.016Z,97.20
2018-08-20T04:24:02.029Z,97.30
2018-08-20T04:26:31.590Z,97.30
2018-08-20T04:29:00.890Z,97.30
2018-08-20T04:31:29.780Z,97.20
2018-08-20T04:33:58.880Z,97.20
2018-08-20T04:36:27.820Z,97.20
2018-08-20T04:38:57.368Z,97.20
2018-08-20T04:41:26.487Z,97.30
2018-08-20T04:43:56.381Z,97.30
2018-08-20T04:46:25.222Z,97.30
2018-08-20T04:48:54.676Z,97.50
2018-08-20T04:51:23.795Z,97.50
2018-08-20T04:53:52.658Z,97.60
2018-08-20T04:56:22.845Z,97.70
2018-08-20T04:58:51.960Z,98.10
2018-08-20T05:01:20.865Z,97.80
2018-08-20T05:03:49.881Z,97.90
2018-08-20T05:06:19.010Z,98.10
2018-08-20T05:08:48.117Z,98.50
2018-08-20T05:11:17.049Z,98.10
2018-08-20T05:13:46.025Z,98.20
2018-08-20T05:16:15.133Z,98.30
2018-08-20T05:18:44.781Z,98.30
2018-08-20T05:21:14.394Z,98.60
2018-08-20T05:23:43.795Z,98.80
2018-08-20T05:26:13.616Z,98.90
2018-08-20T05:28:43.417Z,99.10
2018-08-20T05:31:13.446Z,99.10
2018-08-20T05:33:42.297Z,99.30
2018-08-20T05:36:12.321Z,99.40
2018-08-20T05:38:41.281Z,99.50
2018-08-20T05:41:10.241Z,99.40
2018-08-20T05:43:39.817Z,99.40
2018-08-20T05:46:09.950Z,99.50
2018-08-20T05:48:38.873Z,99.60
2018-08-20T05:51:07.689Z,99.60
2018-08-20T05:53:36.811Z,99.60
2018-08-20T05:56:05.896Z,99.60
2018-08-20T05:58:34.688Z,99.70
2018-08-20T06:01:03.642Z,99.70
2018-08-20T06:03:33.581Z,99.60
2018-08-20T06:06:02.536Z,99.70
2018-08-20T06:08:31.621Z,99.90
2018-08-20T06:11:00.596Z,99.80
2018-08-20T06:13:29.834Z,99.60
2018-08-20T06:15:59.397Z,99.60
2018-08-20T06:18:28.888Z,99.60
2018-08-20T06:20:58.093Z,99.60
2018-08-20T06:23:27.613Z,99.60
2018-08-20T06:25:57.216Z,99.60
2018-08-20T06:28:28.004Z,99.60
2018-08-20T06:30:56.982Z,99.60
2018-08-20T06:33:26.617Z,99.50
2018-08-20T06:35:56.413Z,99.50
2018-08-20T06:38:26.156Z,99.60
2018-08-20T06:40:55.546Z,99.50
2018-08-20T06:43:24.496Z,99.40
2018-08-20T06:45:54.058Z,99.40
2018-08-20T06:48:22.951Z,99.40
2018-08-20T06:50:52.511Z,99.20
2018-08-20T06:53:21.936Z,99.20
2018-08-20T06:55:50.960Z,99.20
2018-08-20T06:58:19.943Z,99.30
2018-08-20T07:00:48.770Z,99.10
2018-08-20T07:03:17.749Z,99.10
2018-08-20T07:05:48.066Z,99.20
2018-08-20T07:08:17.143Z,99.20
2018-08-20T07:10:47.888Z,99.20
2018-08-20T07:13:24.489Z,99.20
2018-08-20T07:15:53.684Z,99.10
2018-08-20T07:18:22.676Z,99.10
2018-08-20T07:20:51.752Z,99.00
2018-08-20T07:23:21.001Z,99.10
2018-08-20T07:25:49.859Z,99.40
2018-08-20T07:28:18.907Z,99.40
2018-08-20T07:30:48.314Z,99.40
2018-08-20T07:33:17.320Z,99.70
2018-08-20T07:35:46.627Z,99.40
2018-08-20T07:38:16.565Z,99.10
2018-08-20T07:40:45.499Z,99.30
2018-08-20T07:43:15.183Z,99.30
2018-08-20T07:45:44.077Z,99.20
2018-08-20T07:48:13.572Z,99.10
2018-08-20T07:50:42.757Z,99.10
2018-08-20T07:53:12.454Z,99.10
2018-08-20T07:55:41.372Z,99.00
2018-08-20T07:58:10.738Z,99.10
2018-08-20T08:00:40.289Z,99.20
2018-08-20T08:03:09.407Z,99.20
2018-08-20T08:05:38.215Z,99.30
2018-08-20T08:08:07.120Z,99.10
2018-08-20T08:10:36.709Z,99.10
2018-08-20T08:13:06.374Z,99.10
2018-08-20T08:15:35.302Z,98.90
2018-08-20T08:18:04.649Z,98.90
2018-08-20T08:20:33.731Z,98.70
2018-08-20T08:23:02.760Z,98.90
2018-08-20T08:25:32.191Z,98.70
2018-08-20T08:28:01.294Z,98.70
2018-08-20T08:30:31.172Z,98.80
2018-08-20T08:33:00.646Z,98.60
2018-08-20T08:35:29.528Z,98.50
2018-08-20T08:37:58.524Z,98.00
2018-08-20T08:40:28.384Z,98.10
2018-08-20T08:42:57.964Z,97.80
2018-08-20T08:45:26.723Z,97.70
2018-08-20T08:47:56.283Z,97.50
2018-08-20T08:50:25.375Z,97.50
2018-08-20T08:52:54.301Z,97.40
2018-08-20T08:55:23.171Z,97.10
2018-08-20T08:57:52.455Z,97.30
2018-08-20T09:00:22.415Z,97.30
2018-08-20T09:02:51.298Z,97.20
2018-08-20T09:05:20.147Z,96.90
2018-08-20T09:07:50.103Z,96.90
2018-08-20T09:10:20.316Z,96.40
2018-08-20T09:12:49.799Z,96.40
2018-08-20T09:15:18.835Z,96.10
2018-08-20T09:17:47.888Z,96.20
2018-08-20T09:20:17.701Z,96.40
2018-08-20T09:22:47.442Z,95.90
2018-08-20T09:25:16.375Z,95.60
2018-08-20T09:27:46.583Z,95.50
2018-08-20T09:30:19.457Z,95.10
2018-08-20T09:32:48.371Z,94.90
2018-08-20T09:35:18.061Z,94.90
2018-08-20T09:37:47.141Z,94.80
2018-08-20T09:40:16.160Z,95.00
2018-08-20T09:42:45.092Z,95.00
2018-08-20T09:45:14.047Z,94.80
2018-08-20T09:47:43.585Z,94.80
2018-08-20T09:50:15.077Z,94.50
2018-08-20T09:52:44.257Z,94.50
2018-08-20T09:55:13.159Z,94.40
2018-08-20T09:57:43.596Z,94.60
2018-08-20T10:00:17.951Z,94.70
2018-08-20T10:02:47.249Z,94.60
2018-08-20T10:05:16.432Z,94.50
2018-08-20T10:07:47.053Z,94.50
2018-08-20T10:10:16.334Z,94.80
2018-08-20T10:12:45.955Z,94.30
2018-08-20T10:15:16.449Z,94.20
2018-08-20T10:17:45.424Z,94.20
2018-08-20T10:20:15.347Z,93.60
2018-08-20T10:22:45.674Z,93.80
2018-08-20T10:25:14.630Z,93.70
2018-08-20T10:27:43.474Z,93.50
2018-08-20T10:30:13.439Z,93.60
2018-08-20T10:32:42.576Z,93.50
2018-08-20T10:35:12.021Z,93.50
2018-08-20T10:37:41.072Z,93.50
2018-08-20T10:40:09.865Z,93.30
2018-08-20T10:42:39.305Z,92.70
2018-08-20T10:45:16.807Z,92.90
2018-08-20T10:47:47.372Z,93.00
2018-08-20T10:50:17.418Z,93.20
2018-08-20T10:52:47.880Z,93.00
2018-08-20T10:55:17.110Z,93.10
2018-08-20T10:57:46.257Z,93.00
2018-08-20T11:00:15.890Z,93.30
2018-08-20T11:02:44.739Z,93.30
2018-08-20T11:05:15.443Z,93.30
2018-08-20T11:07:45.475Z,93.60
2018-08-20T11:10:14.557Z,93.50
2018-08-20T11:12:43.502Z,93.50
2018-08-20T11:15:12.662Z,93.60
2018-08-20T11:17:41.637Z,93.70
2018-08-20T11:20:15.727Z,94.40
2018-08-20T11:22:44.870Z,95.00
2018-08-20T11:25:14.301Z,95.40
2018-08-20T11:27:43.553Z,95.80
2018-08-20T11:30:13.899Z,95.90
2018-08-20T11:32:43.012Z,96.30
2018-08-20T11:35:12.781Z,96.50
2018-08-20T11:37:41.880Z,96.70
2018-08-20T11:40:10.885Z,96.40
2018-08-20T11:42:40.577Z,97.10
2018-08-20T11:45:12.341Z,96.90
2018-08-20T11:47:41.453Z,97.30
2018-08-20T11:50:10.871Z,98.00
2018-08-20T11:52:40.313Z,97.40
2018-08-20T11:55:10.175Z,97.30
2018-08-20T11:57:39.868Z,97.20
2018-08-20T12:00:10.016Z,96.50
2018-08-20T12:02:39.149Z,96.40
2018-08-20T12:05:09.040Z,96.10
2018-08-20T12:07:38.017Z,96.30
2018-08-20T12:10:09.177Z,96.00
2018-08-20T12:12:38.521Z,95.30
2018-08-20T12:15:09.292Z,95.30
2018-08-20T12:17:38.199Z,94.90
2018-08-20T12:20:07.942Z,94.40
2018-08-20T12:22:36.998Z,93.80
2018-08-20T12:25:08.277Z,94.30
2018-08-20T12:27:37.040Z,94.40
2018-08-20T12:30:09.580Z,95.10
2018-08-20T12:32:39.003Z,95.10
2018-08-20T12:35:08.743Z,95.40
2018-08-20T12:37:38.997Z,95.00
2018-08-20T12:40:09.798Z,95.00
2018-08-20T12:42:38.631Z,95.00
2018-08-20T12:45:07.931Z,95.00
2018-08-20T12:47:36.975Z,95.00
2018-08-20T12:50:06.505Z,95.00
2018-08-20T12:52:35.467Z,94.50
2018-08-20T12:55:04.825Z,94.70
2018-08-20T12:57:34.053Z,94.70
2018-08-20T13:00:02.892Z,94.80
2018-08-20T13:02:31.735Z,94.70
2018-08-20T13:05:01.476Z,93.80
2018-08-20T13:07:30.970Z,94.00
2018-08-20T13:09:59.983Z,93.70
2018-08-20T13:12:28.887Z,93.70
2018-08-20T13:14:58.093Z,93.70
2018-08-20T13:17:26.822Z,93.80
2018-08-20T13:19:55.673Z,93.90
2018-08-20T13:22:24.661Z,92.90
2018-08-20T13:24:53.740Z,92.70
2018-08-20T13:27:22.690Z,92.00
2018-08-20T13:29:52.074Z,91.80
2018-08-20T13:32:20.933Z,91.00
2018-08-20T13:34:49.861Z,91.60
2018-08-20T13:37:19.278Z,91.40
2018-08-20T13:39:48.180Z,91.50
2018-08-20T13:42:17.066Z,91.10
2018-08-20T13:44:46.035Z,90.50
2018-08-20T13:47:15.323Z,89.50
2018-08-20T13:49:44.978Z,88.80
2018-08-20T13:52:14.267Z,88.80
2018-08-20T13:54:43.286Z,89.30
2018-08-20T13:57:12.266Z,89.30
2018-08-20T13:59:41.214Z,88.40
2018-08-20T14:02:10.352Z,87.80
2018-08-20T14:04:39.447Z,89.00
2018-08-20T14:07:08.918Z,89.00
2018-08-20T14:09:38.481Z,90.00
2018-08-20T14:12:07.579Z,89.70
2018-08-20T14:14:36.843Z,89.60
2018-08-20T14:17:05.838Z,88.60
2018-08-20T14:19:34.904Z,87.40
2018-08-20T14:22:04.106Z,87.10
2018-08-20T14:24:33.018Z,87.20
2018-08-20T14:27:01.871Z,86.70
2018-08-20T14:29:31.033Z,86.30
2018-08-20T14:32:00.352Z,85.60
2018-08-20T14:34:29.267Z,85.10
2018-08-20T14:36:58.954Z,85.60
2018-08-20T14:39:27.813Z,84.70
2018-08-20T14:41:56.932Z,84.70
2018-08-20T14:44:25.868Z,83.20
2018-08-20T14:46:55.717Z,82.60
2018-08-20T14:49:24.936Z,83.50
2018-08-20T14:51:53.779Z,83.10
2018-08-20T14:54:22.885Z,82.50
2018-08-20T14:56:52.345Z,82.40
2018-08-20T14:59:21.974Z,81.90
2018-08-20T15:01:51.942Z,81.90
2018-08-20T15:04:20.900Z,80.80
2018-08-20T15:07:00.195Z,81.10
2018-08-20T15:09:30.373Z,80.90
2018-08-20T15:11:59.589Z,81.30
2018-08-20T15:14:28.661Z,81.40
2018-08-20T15:16:59.046Z,80.70
2018-08-20T15:19:27.975Z,80.20
2018-08-20T15:21:57.061Z,81.70
2018-08-20T15:24:25.885Z,81.50
2018-08-20T15:26:54.521Z,81.20
2018-08-20T15:29:23.503Z,81.10
2018-08-20T15:31:53.955Z,80.60
2018-08-20T15:34:22.900Z,81.90
2018-08-20T15:36:52.614Z,80.80
2018-08-20T15:39:22.102Z,80.40
2018-08-20T15:41:50.903Z,80.60
2018-08-20T15:44:20.680Z,80.20
2018-08-20T15:46:49.663Z,80.90
2018-08-20T15:49:18.529Z,80.70
2018-08-20T15:51:47.648Z,80.60
2018-08-20T15:54:16.429Z,80.90
2018-08-20T15:56:45.912Z,81.20
2018-08-20T15:59:16.140Z,81.00
2018-08-20T16:01:45.259Z,80.60
2018-08-20T16:04:14.969Z,81.20
2018-08-20T16:06:45.278Z,81.40
2018-08-20T16:09:15.370Z,82.00
2018-08-20T16:11:44.292Z,82.00
2018-08-20T16:14:13.943Z,82.20
2018-08-20T16:16:44.328Z,82.70
2018-08-20T16:19:14.227Z,82.40
2018-08-20T16:21:44.264Z,82.20
2018-08-20T16:24:13.130Z,82.30
2018-08-20T16:26:42.629Z,82.40
2018-08-20T16:29:11.679Z,81.90
2018-08-20T16:31:40.673Z,81.30
2018-08-20T16:34:09.777Z,82.00
2018-08-20T16:36:38.794Z,81.70
2018-08-20T16:39:10.634Z,81.70
2018-08-20T16:41:40.362Z,82.10
2018-08-20T16:44:11.590Z,81.40
2018-08-20T16:46:40.523Z,81.80
2018-08-20T16:49:10.720Z,81.80
2018-08-20T16:51:39.705Z,81.90
2018-08-20T16:54:09.426Z,82.60
2018-08-20T16:56:38.216Z,82.80
2018-08-20T16:59:07.284Z,83.70
2018-08-20T17:01:36.450Z,84.00
2018-08-20T17:04:06.345Z,84.90
2018-08-20T17:06:48.321Z,85.40
2018-08-20T17:09:17.822Z,85.50
2018-08-20T17:11:46.776Z,85.90
2018-08-20T17:14:15.572Z,86.20
2018-08-20T17:16:44.375Z,86.40
2018-08-20T17:19:14.367Z,86.70
2018-08-20T17:21:43.332Z,86.40
2018-08-20T17:24:13.530Z,86.60
2018-08-20T17:26:42.434Z,86.90
2018-08-20T17:29:12.818Z,86.70
2018-08-20T17:31:44.149Z,86.80
2018-08-20T17:34:13.278Z,87.10
2018-08-20T17:36:42.818Z,87.30
2018-08-20T17:39:12.357Z,87.30
2018-08-20T17:41:42.816Z,87.10
2018-08-20T17:44:12.996Z,87.10
2018-08-20T17:46:42.060Z,87.30
2018-08-20T17:49:12.949Z,87.10
2018-08-20T17:51:41.981Z,87.30
2018-08-20T17:54:16.050Z,87.50
2018-08-20T17:56:45.246Z,87.50
2018-08-20T17:59:14.192Z,88.30
2018-08-20T18:01:43.701Z,88.10
2018-08-20T18:04:12.796Z,88.10
2018-08-20T18:09:33.056Z,88.20
2018-08-20T18:12:03.270Z,88.40
2018-08-20T18:14:32.734Z,88.50
2018-08-20T18:17:01.986Z,88.70
2018-08-20T18:19:32.159Z,89.30
2018-08-20T18:22:04.533Z,89.10
2018-08-20T18:24:33.680Z,89.30
2018-08-20T18:27:02.984Z,89.10
2018-08-20T18:29:32.337Z,89.10
2018-08-20T18:32:03.088Z,89.20
2018-08-20T18:34:32.492Z,90.00
2018-08-20T18:37:04.558Z,89.30
2018-08-20T18:39:33.938Z,89.90
2018-08-20T18:42:19.069Z,90.00
2018-08-20T18:44:49.188Z,90.20
2018-08-20T18:47:19.376Z,90.30
2018-08-20T18:49:53.852Z,90.30
2018-08-20T18:52:23.946Z,90.40
2018-08-20T18:54:54.312Z,90.60
2018-08-20T18:57:26.970Z,90.70
2018-08-20T18:59:57.891Z,90.70
2018-08-20T19:02:39.094Z,90.80
2018-08-20T19:05:10.872Z,90.90
2018-08-20T19:07:40.662Z,91.00
2018-08-20T19:10:32.618Z,91.10
2018-08-20T19:13:01.987Z,90.90
2018-08-20T19:15:40.049Z,90.90
2018-08-20T19:18:13.363Z,91.00
2018-08-20T19:20:44.109Z,91.00
2018-08-20T19:23:13.448Z,91.00
2018-08-20T19:25:44.767Z,90.90
2018-08-20T19:28:15.535Z,91.00
2018-08-20T19:30:45.036Z,91.10
2018-08-20T19:33:19.570Z,90.90
2018-08-20T19:35:49.053Z,91.00
2018-08-20T19:38:18.429Z,91.10
2018-08-20T19:40:48.902Z,91.20
2018-08-20T19:43:18.224Z,91.40
2018-08-20T19:45:47.217Z,91.70
2018-08-20T19:48:16.576Z,91.60
2018-08-20T19:50:45.829Z,91.90
2018-08-20T19:53:23.460Z,91.70
2018-08-20T19:55:53.176Z,91.80
2018-08-20T19:58:27.680Z,91.90
2018-08-20T20:01:07.991Z,92.00
2018-08-20T20:03:37.501Z,91.90
2018-08-20T20:06:06.793Z,91.80
2018-08-20T20:08:36.178Z,91.70
2018-08-20T20:11:08.632Z,91.80
2018-08-20T20:13:37.781Z,91.80
2018-08-20T20:16:07.060Z,92.10
2018-08-20T20:18:36.409Z,91.80
2018-08-20T20:21:06.461Z,91.90
2018-08-20T20:23:35.827Z,91.80
2018-08-20T20:26:05.196Z,91.90
2018-08-20T20:28:34.458Z,92.10
2018-08-20T20:31:03.813Z,91.90
2018-08-20T20:33:33.318Z,92.00
2018-08-20T20:36:04.292Z,92.00
2018-08-20T20:38:33.697Z,92.10
2018-08-20T20:41:03.191Z,92.20
2018-08-20T20:43:38.933Z,92.20
2018-08-20T20:46:10.066Z,92.20
2018-08-20T20:48:39.478Z,92.60
2018-08-20T20:51:08.766Z,92.50
2018-08-20T20:53:38.173Z,92.60
2018-08-20T20:56:07.514Z,92.50
2018-08-20T20:58:37.679Z,92.30
2018-08-20T21:01:08.254Z,92.00
2018-08-20T21:03:37.793Z,91.90
2018-08-20T21:06:07.585Z,91.70
2018-08-20T21:08:42.223Z,91.70
2018-08-20T21:11:12.767Z,91.70
2018-08-20T21:13:42.558Z,91.90
2018-08-20T21:16:13.196Z,92.00
2018-08-20T21:18:48.463Z,92.20
2018-08-20T21:21:19.307Z,92.20
2018-08-20T21:23:48.643Z,92.40
2018-08-20T21:26:18.016Z,92.60
2018-08-20T21:28:52.283Z,92.80
2018-08-20T21:31:22.724Z,92.90
2018-08-20T21:33:57.547Z,93.10
2018-08-20T21:36:26.939Z,93.30
2018-08-20T21:38:56.296Z,93.70
2018-08-20T21:41:27.744Z,93.70
2018-08-20T21:43:57.019Z,93.80
2018-08-20T21:46:26.346Z,93.90
2018-08-20T21:48:55.498Z,94.00
2018-08-20T21:51:29.965Z,94.10
2018-08-20T21:53:59.327Z,94.20
2018-08-20T21:57:01.933Z,94.30
2018-08-20T21:59:31.166Z,94.50
2018-08-20T22:02:00.705Z,94.50
2018-08-20T22:04:31.232Z,94.60
2018-08-20T22:07:00.929Z,94.70
2018-08-20T22:09:30.172Z,94.70
2018-08-20T22:11:59.491Z,94.80
2018-08-20T22:14:28.714Z,94.90
2018-08-20T22:16:57.886Z,94.90
2018-08-20T22:19:27.248Z,94.90
2018-08-20T22:21:57.223Z,95.10
2018-08-20T22:24:26.606Z,95.20
2018-08-20T22:26:58.981Z,95.60
2018-08-20T22:29:36.883Z,95.80
2018-08-20T22:32:07.703Z,95.90
2018-08-20T22:34:37.121Z,95.90
2018-08-20T22:37:08.460Z,95.80
2018-08-20T22:39:37.717Z,95.80
2018-08-20T22:42:07.073Z,95.80
2018-08-20T22:44:36.318Z,95.70
2018-08-20T22:47:06.538Z,95.80
2018-08-20T22:49:35.935Z,95.80
2018-08-20T22:52:06.194Z,95.80
2018-08-20T22:54:35.634Z,95.90
2018-08-20T22:57:05.285Z,95.90
2018-08-20T22:59:34.711Z,96.20
2018-08-20T23:02:04.488Z,97.10
2018-08-20T23:04:33.864Z,97.40
2018-08-20T23:07:07.639Z,97.70
2018-08-20T23:09:36.902Z,97.60
2018-08-20T23:12:06.118Z,97.30
2018-08-20T23:14:35.511Z,97.20
2018-08-20T23:17:04.895Z,97.00
2018-08-20T23:19:34.217Z,97.00
2018-08-20T23:22:04.344Z,97.00
2018-08-20T23:24:33.853Z,97.00
2018-08-20T23:27:03.079Z,96.90
2018-08-20T23:29:32.386Z,96.80
2018-08-20T23:32:02.292Z,96.80
2018-08-20T23:34:31.767Z,96.90
2018-08-20T23:37:01.219Z,96.80
2018-08-20T23:39:30.496Z,96.90
2018-08-20T23:41:59.890Z,96.80
2018-08-20T23:44:29.449Z,96.90
2018-08-20T23:46:58.746Z,96.90
2018-08-20T23:49:28.020Z,96.90
2018-08-20T23:51:57.329Z,97.00
2018-08-20T23:54:26.806Z,96.90
2018-08-20T23:56:56.138Z,96.90
2018-08-20T23:59:25.497Z,96.90
